Airfield :
LOGIN :

Register | Disclaimer

   EN    FR    IT 

 










Legend :    VFR   Marginal VFR   IFR   Intensive IFR   Very Intensive IFR
Visi :
Ceiling :
>= 8 km
>= 3000ft
5 to 8 km
1000 to 3000 ft
1500m to 5 km
500 to 1000 ft
800 to 1500m
200 to 500 ft
< 800m
< 200 ft
Symbols :   Thunderstorms  Fog  Heavy snow  Heavy precipitations  Wind > 20 kt
SIGMETs :     Misc.  Thunderstorms  Icing  Turbulence  Mountain Waves  Volcanic Ashes






- Airport Elevation : 3006 ft
- IATA code : LEN


LELN - Leon

CURRENT METAR :
  • 300100Z AUTO 00000KT CAVOK 10/09 Q1017

EXPIRED METARs :
  • 300030Z AUTO VRB01KT CAVOK 12/09 Q1017
  • 300000Z AUTO 27002KT CAVOK 11/09 Q1017
  • 292330Z AUTO 26003KT CAVOK 13/10 Q1017
  • 292300Z AUTO 32003KT CAVOK 14/11 Q1017
  • 292230Z AUTO 32003KT CAVOK 15/11 Q1017

TAF TAF LELN
Valid from the 29 at 18:00 until the 30 at 03:00 UTC


291700Z 2918/3003 VRB04KT 9999 FEW040
PROB40
TEMPO 2918/2922 01010KT FEW035TCU
PROB30
TEMPO 2918/2921 VRB15G25KT 4000 TS SHRA FEW035CB



MET'MAP, your aeronautical weather chart ! - Copyright ORBIFLY December 2007 - Disclaimer

ORBIFLY MET'MAP TEAM :

Programming & Development : Alexandra Zaïnal
Concept & original design : Baudouin d'Aumeries
Assistance for programming : Marc-Olivier Méhu
Technical & hardware support : Manuel Goepfert

Contact : metmap@orbifly.com




SOURCES & CREDITS :

   NOAA